Time;durP1;ratioP1;P1;durP2;ratioP2;P2;SDS_P1;SDS_P2;PMS_P1;PMS_P2;Temp;Humidity;BMP_temperature;BMP_pressure;BME280_temperature;BME280_humidity;BME280_pressure;Samples;Min_cycle;Max_cycle;Signal;HPM_P1;HPM_P2
2024/01/03 00:02:20;;;;;;;25.40;16.08;;;;;;;3.68;70.12;94654.88;5044934;28;20507;-79
2024/01/03 00:04:45;;;;;;;28.85;17.52;;;;;;;3.71;70.12;94650.56;5043439;28;20112;-79
2024/01/03 00:07:11;;;;;;;27.42;17.67;;;;;;;3.69;71.19;94658.38;5028456;28;20057;-78
2024/01/03 00:09:36;;;;;;;27.88;17.17;;;;;;;3.71;70.73;94631.53;5027073;28;20068;-79
2024/01/03 00:12:03;;;;;;;25.25;17.00;;;;;;;3.70;70.73;94649.03;5029890;28;20077;-80
2024/01/03 00:14:32;;;;;;;31.85;16.88;;;;;;;3.73;70.69;94653.69;5025830;28;20041;-79
2024/01/03 00:17:04;;;;;;;24.73;15.65;;;;;;;3.74;70.48;94657.94;5026172;28;20025;-78
2024/01/03 00:19:29;;;;;;;23.70;16.05;;;;;;;3.72;70.21;94643.97;5026131;28;20076;-78
2024/01/03 00:21:54;;;;;;;21.30;15.05;;;;;;;3.75;70.28;94645.13;5025875;28;20021;-78
2024/01/03 00:24:20;;;;;;;23.10;16.20;;;;;;;3.74;69.88;94652.50;5027329;28;20029;-79
2024/01/03 00:26:46;;;;;;;22.67;15.18;;;;;;;3.71;70.29;94650.56;5026065;28;20032;-80
2024/01/03 00:29:23;;;;;;;21.75;15.60;;;;;;;3.76;70.24;94650.16;5027132;28;20120;-78
2024/01/03 00:31:49;;;;;;;25.20;15.30;;;;;;;3.79;70.14;94652.09;5027199;28;20111;-79
2024/01/03 00:34:36;;;;;;;25.67;15.68;;;;;;;3.81;69.80;94636.13;5026248;28;20496;-80
2024/01/03 00:37:10;;;;;;;24.25;16.33;;;;;;;3.75;69.73;94642.41;5027110;28;20045;-79
2024/01/03 00:39:35;;;;;;;25.65;15.75;;;;;;;3.81;69.43;94643.53;5024792;28;20554;-79
2024/01/03 00:42:01;;;;;;;23.63;16.20;;;;;;;3.72;69.71;94638.53;5026872;28;20041;-78
2024/01/03 00:44:26;;;;;;;23.38;16.30;;;;;;;3.63;69.99;94630.84;5026646;28;20032;-79
2024/01/03 00:46:53;;;;;;;19.73;14.52;;;;;;;3.70;69.91;94638.16;5026267;28;20381;-78
2024/01/03 00:49:19;;;;;;;25.25;14.70;;;;;;;3.74;69.95;94638.91;5027605;28;20034;-78
2024/01/03 00:51:47;;;;;;;21.90;14.57;;;;;;;3.66;70.13;94634.69;5029684;28;20450;-78
2024/01/03 00:54:13;;;;;;;26.23;14.40;;;;;;;3.76;69.93;94641.22;5029844;28;20054;-78
2024/01/03 00:56:38;;;;;;;23.88;15.05;;;;;;;3.72;70.02;94654.84;5028239;28;20502;-79
2024/01/03 00:59:04;;;;;;;20.60;14.18;;;;;;;3.71;70.16;94661.44;5029361;28;20064;-79
2024/01/03 01:01:29;;;;;;;23.63;15.02;;;;;;;3.69;70.62;94650.97;5028531;28;20079;-79
2024/01/03 01:03:55;;;;;;;22.58;15.13;;;;;;;3.65;70.45;94642.06;5030275;28;20201;-79
2024/01/03 01:06:20;;;;;;;21.95;14.80;;;;;;;3.66;70.38;94640.13;5029356;28;20100;-79
2024/01/03 01:08:46;;;;;;;23.83;14.55;;;;;;;3.70;70.14;94649.81;5029551;28;20037;-78
2024/01/03 01:11:11;;;;;;;24.42;15.20;;;;;;;3.74;70.46;94649.78;5030792;28;20104;-79
2024/01/03 01:13:36;;;;;;;20.60;13.98;;;;;;;3.73;70.35;94650.97;5029454;28;20047;-79
2024/01/03 01:16:02;;;;;;;19.17;13.55;;;;;;;3.82;69.91;94637.69;5030276;28;20085;-79
2024/01/03 01:18:27;;;;;;;18.40;13.48;;;;;;;3.84;69.83;94646.22;5029138;28;20029;-79
2024/01/03 01:20:52;;;;;;;22.40;13.13;;;;;;;3.85;70.26;94630.69;5030318;28;20029;-79
2024/01/03 01:23:18;;;;;;;21.17;14.05;;;;;;;3.84;70.52;94623.66;5012047;28;20528;-79
2024/01/03 01:25:43;;;;;;;20.08;13.10;;;;;;;3.88;70.84;94632.59;5030029;28;20025;-79
2024/01/03 01:28:09;;;;;;;19.88;13.30;;;;;;;3.88;70.72;94617.03;5030293;28;20057;-79
2024/01/03 01:30:34;;;;;;;20.73;12.82;;;;;;;3.92;70.43;94619.75;5029233;28;20064;-78
2024/01/03 01:32:59;;;;;;;17.95;12.95;;;;;;;3.97;69.65;94617.34;5028757;28;20052;-78
2024/01/03 01:35:25;;;;;;;21.45;13.18;;;;;;;3.87;70.26;94604.63;5027542;28;20116;-80
2024/01/03 01:37:50;;;;;;;19.05;12.38;;;;;;;3.89;70.76;94609.66;5030085;28;20056;-78
2024/01/03 01:40:16;;;;;;;21.70;13.48;;;;;;;3.87;70.69;94604.63;5029019;28;20111;-78
2024/01/03 01:42:42;;;;;;;18.33;12.82;;;;;;;3.95;70.70;94618.91;5028714;28;20099;-79
2024/01/03 01:45:08;;;;;;;19.50;13.52;;;;;;;3.96;70.55;94615.06;5028237;28;20056;-79
2024/01/03 01:47:34;;;;;;;21.02;12.93;;;;;;;3.98;70.47;94616.19;5027692;28;20132;-79
2024/01/03 01:49:59;;;;;;;17.30;12.55;;;;;;;4.02;69.96;94608.00;5028316;28;20538;-78
2024/01/03 01:52:25;;;;;;;18.60;12.25;;;;;;;4.03;69.86;94614.97;5027536;28;20044;-78
2024/01/03 01:54:50;;;;;;;18.33;12.68;;;;;;;4.04;69.78;94613.03;5029799;28;20088;-78
2024/01/03 01:57:16;;;;;;;16.75;12.02;;;;;;;4.00;69.90;94602.16;5028752;28;20065;-78
2024/01/03 01:59:42;;;;;;;19.50;13.27;;;;;;;4.03;69.58;94604.09;5028029;28;20033;-79
2024/01/03 02:02:08;;;;;;;21.20;12.73;;;;;;;4.03;70.00;94616.94;5011225;28;20112;-79
2024/01/03 02:04:34;;;;;;;17.30;12.13;;;;;;;3.97;70.18;94605.72;5028167;28;20036;-80
2024/01/03 02:07:00;;;;;;;17.77;12.07;;;;;;;3.97;70.33;94606.47;5028387;28;20040;-78
2024/01/03 02:09:25;;;;;;;16.00;11.68;;;;;;;3.93;70.26;94613.88;5027440;28;20037;-79
2024/01/03 02:11:51;;;;;;;17.52;12.27;;;;;;;3.98;69.90;94624.34;5028270;28;20021;-78
2024/01/03 02:14:16;;;;;;;20.20;11.73;;;;;;;3.97;69.90;94630.19;5028180;28;20025;-79
2024/01/03 02:16:41;;;;;;;19.52;12.13;;;;;;;3.95;70.26;94638.72;5028421;28;20082;-80
2024/01/03 02:19:07;;;;;;;16.00;12.05;;;;;;;3.96;70.36;94620.50;5028315;28;20566;-79
2024/01/03 02:21:32;;;;;;;18.55;12.65;;;;;;;3.93;70.60;94619.31;5029564;28;20033;-78
2024/01/03 02:23:58;;;;;;;16.75;11.52;;;;;;;3.98;70.79;94618.13;5027621;28;20080;-78
2024/01/03 02:26:23;;;;;;;15.77;11.20;;;;;;;3.91;71.80;94608.09;5028605;28;20400;-79
2024/01/03 02:28:48;;;;;;;13.73;10.43;;;;;;;3.91;71.51;94596.44;5028103;28;20033;-79
2024/01/03 02:31:14;;;;;;;17.35;11.68;;;;;;;3.94;70.71;94596.41;5027972;28;20405;-79
2024/01/03 02:33:39;;;;;;;14.32;10.73;;;;;;;3.98;70.86;94583.53;5029402;28;20025;-79
2024/01/03 02:36:05;;;;;;;18.33;12.38;;;;;;;4.00;70.87;94586.63;5027821;28;20040;-79
2024/01/03 02:38:30;;;;;;;15.50;10.52;;;;;;;4.01;71.06;94584.66;5027921;28;20073;-79
2024/01/03 02:40:56;;;;;;;16.42;11.50;;;;;;;3.97;71.25;94576.56;5028091;28;20033;-79
2024/01/03 02:43:21;;;;;;;16.45;11.20;;;;;;;3.97;70.50;94573.84;5028512;28;20314;-79
2024/01/03 02:45:47;;;;;;;16.88;11.45;;;;;;;4.04;70.86;94577.66;5027502;28;20563;-78
2024/01/03 02:48:12;;;;;;;17.42;11.40;;;;;;;4.07;70.56;94588.53;5027697;28;20022;-80
2024/01/03 02:50:37;;;;;;;16.10;11.02;;;;;;;4.00;70.84;94573.03;5028866;28;20030;-79
2024/01/03 02:53:03;;;;;;;13.27;10.45;;;;;;;4.04;71.12;94577.66;5027348;28;20045;-79
2024/01/03 02:55:28;;;;;;;15.98;10.40;;;;;;;4.05;70.98;94573.75;5028794;28;20076;-79
2024/01/03 02:57:54;;;;;;;16.17;11.05;;;;;;;4.07;71.55;94576.84;5027461;28;20029;-78
2024/01/03 03:00:19;;;;;;;15.20;10.80;;;;;;;4.07;71.79;94580.38;5028460;28;20472;-78
2024/01/03 03:02:45;;;;;;;18.80;11.45;;;;;;;4.08;71.99;94572.97;5028542;28;20172;-78
2024/01/03 03:05:11;;;;;;;17.73;12.32;;;;;;;4.10;72.11;94576.06;5026195;28;20073;-78
2024/01/03 03:07:36;;;;;;;20.20;12.55;;;;;;;4.07;72.00;94587.72;5027285;28;20452;-79
2024/01/03 03:10:02;;;;;;;18.25;12.95;;;;;;;4.11;71.68;94583.03;5025605;28;20476;-80
2024/01/03 03:12:27;;;;;;;17.77;11.50;;;;;;;4.17;71.42;94586.84;5028789;28;20075;-79
2024/01/03 03:14:53;;;;;;;17.08;12.05;;;;;;;4.15;71.59;94584.56;5025403;28;20050;-79
2024/01/03 03:17:18;;;;;;;17.13;12.13;;;;;;;4.15;71.52;94573.66;5028370;28;20072;-79
2024/01/03 03:19:44;;;;;;;14.40;11.35;;;;;;;4.21;71.37;94565.84;5027767;28;20033;-79
2024/01/03 03:22:09;;;;;;;16.95;11.98;;;;;;;4.18;71.27;94564.69;5027576;28;20033;-80
2024/01/03 03:24:34;;;;;;;18.52;11.88;;;;;;;4.24;71.15;94554.94;5010278;28;20113;-79
2024/01/03 03:27:00;;;;;;;15.25;10.35;;;;;;;4.23;71.25;94555.31;5026919;28;20033;-79
2024/01/03 03:29:25;;;;;;;14.80;10.48;;;;;;;4.22;71.30;94551.81;5028016;28;20030;-79
2024/01/03 03:31:50;;;;;;;16.88;11.82;;;;;;;4.28;71.27;94545.94;5026747;28;20039;-79
2024/01/03 03:34:17;;;;;;;19.13;13.10;;;;;;;4.24;71.17;94541.31;5027940;28;20503;-79
2024/01/03 03:36:43;;;;;;;20.38;13.57;;;;;;;4.32;70.92;94539.28;5026959;28;20037;-78
2024/01/03 03:39:08;;;;;;;20.85;13.85;;;;;;;4.35;70.67;94537.69;5026129;28;20466;-79
2024/01/03 03:41:35;;;;;;;22.50;14.25;;;;;;;4.38;69.90;94537.66;5027688;28;20033;-79
2024/01/03 03:44:00;;;;;;;21.40;14.77;;;;;;;4.36;70.05;94536.50;5025295;28;20037;-79
2024/01/03 03:46:26;;;;;;;24.77;16.75;;;;;;;4.29;69.97;94531.91;5026442;28;20040;-78
2024/01/03 03:48:51;;;;;;;23.77;16.45;;;;;;;4.33;69.88;94535.38;5026612;28;20495;-79
2024/01/03 03:51:16;;;;;;;24.30;16.65;;;;;;;4.35;69.97;94541.19;5027608;28;20108;-78
2024/01/03 03:53:42;;;;;;;21.45;14.15;;;;;;;4.34;70.29;94530.72;5026877;28;20408;-78
2024/01/03 03:56:07;;;;;;;19.92;13.50;;;;;;;4.41;70.43;94536.84;5027288;28;20109;-78
2024/01/03 03:58:33;;;;;;;19.92;14.02;;;;;;;4.41;70.50;94525.19;5027143;28;20162;-79
2024/01/03 04:00:58;;;;;;;19.50;13.52;;;;;;;4.40;70.67;94539.97;5025571;28;20021;-78
2024/01/03 04:03:24;;;;;;;20.45;13.02;;;;;;;4.32;70.91;94541.25;5027438;28;20021;-80
2024/01/03 04:05:49;;;;;;;20.15;13.07;;;;;;;4.31;70.94;94550.59;5026583;28;20029;-79
2024/01/03 04:08:15;;;;;;;22.42;15.20;;;;;;;4.33;70.52;94545.50;5027265;28;20052;-78
2024/01/03 04:10:41;;;;;;;21.73;14.75;;;;;;;4.33;70.35;94546.25;5026144;28;20105;-79
2024/01/03 04:13:06;;;;;;;22.55;14.50;;;;;;;4.35;70.42;94541.19;5026067;28;20112;-78
2024/01/03 04:15:32;;;;;;;20.75;14.15;;;;;;;4.36;70.45;94558.28;5025070;28;20536;-79
2024/01/03 04:17:57;;;;;;;24.35;15.05;;;;;;;4.32;70.41;94546.69;5027009;28;20407;-79
2024/01/03 04:20:23;;;;;;;22.80;16.85;;;;;;;4.34;69.78;94545.09;5025793;28;20043;-79
2024/01/03 04:22:48;;;;;;;25.83;16.95;;;;;;;4.35;69.94;94546.63;5026236;28;20411;-79
2024/01/03 04:25:13;;;;;;;24.60;17.63;;;;;;;4.35;69.76;94549.34;5027239;28;20029;-79
2024/01/03 04:27:39;;;;;;;25.98;18.80;;;;;;;4.33;69.31;94557.16;5026448;28;20025;-78
2024/01/03 04:30:05;;;;;;;26.80;18.23;;;;;;;4.32;69.40;94552.13;5027105;28;20071;-78
2024/01/03 04:32:31;;;;;;;26.25;18.27;;;;;;;4.34;69.29;94558.69;5024803;28;20021;-80
2024/01/03 04:34:56;;;;;;;26.30;17.42;;;;;;;4.35;69.50;94554.78;5027319;28;20030;-78
2024/01/03 04:37:21;;;;;;;24.80;16.85;;;;;;;4.32;69.65;94560.28;5026493;28;20033;-80
2024/01/03 04:39:47;;;;;;;27.63;17.75;;;;;;;4.28;70.09;94548.66;5026760;28;20116;-79
2024/01/03 04:42:12;;;;;;;24.35;15.93;;;;;;;4.27;70.06;94556.06;5026877;28;20096;-80
2024/01/03 04:44:38;;;;;;;22.20;15.18;;;;;;;4.29;70.34;94556.41;5026192;28;20025;-79
2024/01/03 04:47:03;;;;;;;21.88;14.70;;;;;;;4.22;70.87;94545.59;5025615;28;20029;-79
2024/01/03 04:49:29;;;;;;;17.70;13.27;;;;;;;4.26;70.92;94555.28;5025812;28;20033;-79
2024/01/03 04:51:55;;;;;;;19.73;13.00;;;;;;;4.16;71.71;94550.72;5027241;28;20550;-78
2024/01/03 04:54:20;;;;;;;17.25;12.07;;;;;;;4.09;72.56;94548.09;5024700;28;20033;-81
2024/01/03 04:56:46;;;;;;;18.83;12.65;;;;;;;4.14;72.42;94541.44;5026870;28;20033;-79
2024/01/03 04:59:11;;;;;;;17.88;13.10;;;;;;;4.10;72.61;94548.84;5026674;28;20021;-79
2024/01/03 05:01:37;;;;;;;18.10;11.52;;;;;;;4.13;72.99;94546.09;5026300;28;20029;-78
2024/01/03 05:04:02;;;;;;;15.20;11.30;;;;;;;4.09;73.29;94539.91;5026623;28;20026;-79
2024/01/03 05:06:28;;;;;;;17.23;11.98;;;;;;;4.13;73.33;94548.81;5024464;28;20448;-79
2024/01/03 05:08:53;;;;;;;17.52;12.20;;;;;;;4.18;73.21;94551.06;5025549;28;20108;-79
2024/01/03 05:11:18;;;;;;;28.95;18.30;;;;;;;4.25;71.96;94548.31;5025405;28;20033;-79
2024/01/03 05:13:44;;;;;;;50.03;26.83;;;;;;;4.32;69.94;94554.84;5026728;28;20033;-79
2024/01/03 05:16:09;;;;;;;48.13;27.08;;;;;;;4.22;69.35;94542.88;5025603;28;20519;-79
2024/01/03 05:18:35;;;;;;;42.85;25.13;;;;;;;4.31;69.21;94550.59;5008348;28;20055;-79
2024/01/03 05:21:02;;;;;;;34.83;23.67;;;;;;;4.22;69.49;94556.50;5026250;28;20105;-79
2024/01/03 05:23:27;;;;;;;35.85;20.98;;;;;;;4.25;69.46;94555.69;5025526;28;20030;-79
2024/01/03 05:25:53;;;;;;;37.42;24.00;;;;;;;4.30;68.97;94555.25;5025259;28;20036;-79
2024/01/03 05:28:18;;;;;;;47.60;27.88;;;;;;;4.31;68.88;94553.31;5023575;28;20561;-79
2024/01/03 05:30:43;;;;;;;46.38;28.35;;;;;;;4.23;68.97;94555.31;5026605;28;20112;-79
2024/01/03 05:33:09;;;;;;;45.05;26.67;;;;;;;4.18;69.06;94561.19;5025374;28;20466;-79
2024/01/03 05:35:34;;;;;;;46.85;28.60;;;;;;;4.11;68.87;94553.09;5027172;28;20036;-80
2024/01/03 05:37:59;;;;;;;53.28;30.40;;;;;;;4.19;68.60;94568.97;5029651;28;20053;-79
2024/01/03 05:40:25;;;;;;;53.92;34.05;;;;;;;4.15;68.46;94567.47;5029038;28;20454;-79
2024/01/03 05:42:50;;;;;;;54.53;35.85;;;;;;;4.12;68.08;94571.75;5030009;28;20035;-79
2024/01/03 05:45:15;;;;;;;55.50;36.17;;;;;;;4.14;68.01;94563.19;5028747;28;20132;-78
2024/01/03 05:47:41;;;;;;;42.53;29.45;;;;;;;4.16;67.51;94556.16;5030109;28;20025;-79
2024/01/03 05:50:08;;;;;;;37.53;25.65;;;;;;;4.11;67.45;94567.47;5028554;28;20060;-79
2024/01/03 05:52:35;;;;;;;38.03;24.38;;;;;;;4.02;67.19;94555.56;5030004;28;20451;-79
2024/01/03 05:55:00;;;;;;;40.92;25.83;;;;;;;4.00;67.34;94556.69;5029124;28;20034;-79
2024/01/03 05:57:26;;;;;;;42.05;25.30;;;;;;;3.95;67.42;94561.81;5029339;28;20033;-78
2024/01/03 05:59:51;;;;;;;43.17;26.70;;;;;;;3.91;67.48;94559.13;5029605;28;20033;-79
2024/01/03 06:02:17;;;;;;;39.67;26.48;;;;;;;3.86;67.44;94547.91;5028671;28;20052;-79
2024/01/03 06:04:43;;;;;;;35.63;24.95;;;;;;;3.85;67.61;94541.72;5029935;28;20057;-80
2024/01/03 06:07:09;;;;;;;32.15;20.05;;;;;;;3.84;68.04;94537.47;5027011;28;20500;-79
2024/01/03 06:09:34;;;;;;;27.08;18.02;;;;;;;3.69;68.84;94546.91;5029839;28;20199;-79
2024/01/03 06:12:00;;;;;;;27.63;17.50;;;;;;;3.62;69.21;94547.75;5026971;28;20045;-79
2024/01/03 06:14:25;;;;;;;25.50;17.80;;;;;;;3.67;69.13;94551.94;5029076;28;20056;-79
2024/01/03 06:16:50;;;;;;;27.25;17.05;;;;;;;3.63;69.25;94552.00;5029167;28;20026;-79
2024/01/03 06:19:16;;;;;;;23.52;16.90;;;;;;;3.69;69.23;94553.13;5028329;28;20053;-80
2024/01/03 06:21:41;;;;;;;24.10;17.13;;;;;;;3.67;69.58;94549.22;5029391;28;20025;-80
2024/01/03 06:24:06;;;;;;;25.20;17.15;;;;;;;3.70;69.54;94549.22;5028102;28;20041;-81
2024/01/03 06:26:32;;;;;;;22.42;15.10;;;;;;;3.68;69.77;94570.59;5029112;28;20021;-78
2024/01/03 06:28:57;;;;;;;26.40;15.15;;;;;;;3.59;70.27;94564.84;5028335;28;20120;-78
2024/01/03 06:31:23;;;;;;;25.02;16.38;;;;;;;3.60;70.50;94557.44;5027498;28;20527;-79
2024/01/03 06:33:49;;;;;;;23.83;16.48;;;;;;;3.50;70.87;94552.88;5028639;28;20561;-79
2024/01/03 06:36:14;;;;;;;27.08;17.38;;;;;;;3.52;71.00;94550.53;5028436;28;20029;-79
2024/01/03 06:38:40;;;;;;;28.52;18.20;;;;;;;3.44;71.47;94530.78;5027397;28;20025;-79
2024/01/03 06:41:06;;;;;;;25.98;17.23;;;;;;;3.51;71.40;94535.41;5028117;28;20025;-79
2024/01/03 06:43:32;;;;;;;26.20;16.63;;;;;;;3.60;71.30;94530.28;5029076;28;20025;-80
2024/01/03 06:45:57;;;;;;;27.25;17.15;;;;;;;3.65;71.25;94530.63;5027609;28;20767;-79
2024/01/03 06:48:22;;;;;;;25.02;16.75;;;;;;;3.70;71.52;94535.63;5028810;28;20076;-79
2024/01/03 06:50:48;;;;;;;27.45;17.40;;;;;;;3.75;71.51;94550.72;5026555;28;20428;-80
2024/01/03 06:53:13;;;;;;;26.35;16.75;;;;;;;3.74;71.75;94549.19;5033866;28;20078;-80
2024/01/03 06:55:39;;;;;;;25.17;16.60;;;;;;;3.77;71.83;94559.25;5047138;28;20029;-78
2024/01/03 06:58:04;;;;;;;23.70;15.95;;;;;;;3.83;71.82;94554.16;5037686;28;20071;-80
2024/01/03 07:00:29;;;;;;;25.42;15.50;;;;;;;3.89;71.45;94557.97;5029625;28;20499;-78
2024/01/03 07:02:55;;;;;;;24.25;15.00;;;;;;;3.95;71.60;94559.84;5027930;28;20052;-79
2024/01/03 07:05:21;;;;;;;27.83;17.20;;;;;;;4.05;71.41;94543.84;5028380;28;20119;-80
2024/01/03 07:07:46;;;;;;;29.13;16.10;;;;;;;4.10;70.99;94536.03;5027397;28;20439;-80
2024/01/03 07:10:12;;;;;;;25.60;15.48;;;;;;;4.08;71.05;94532.16;5029157;28;20064;-77
2024/01/03 07:12:38;;;;;;;24.90;16.27;;;;;;;4.13;70.99;94542.59;5027586;28;20112;-79
2024/01/03 07:15:05;;;;;;;22.50;14.93;;;;;;;4.19;70.96;94533.59;5027566;28;20046;-80
2024/01/03 07:17:30;;;;;;;23.92;15.32;;;;;;;4.23;70.83;94547.91;5028201;28;20029;-80
2024/01/03 07:19:55;;;;;;;21.98;14.85;;;;;;;4.27;70.55;94553.34;5035854;28;20463;-78
2024/01/03 07:22:21;;;;;;;25.65;15.57;;;;;;;4.34;70.71;94552.47;5046792;28;20082;-80
2024/01/03 07:24:47;;;;;;;25.20;16.40;;;;;;;4.41;70.66;94553.16;5047404;28;20044;-79
2024/01/03 07:27:15;;;;;;;27.20;17.75;;;;;;;4.44;70.90;94557.03;5046284;28;20044;-79
2024/01/03 07:29:41;;;;;;;30.27;18.63;;;;;;;4.48;70.76;94555.06;5047221;28;20029;-79
2024/01/03 07:32:07;;;;;;;26.60;17.77;;;;;;;4.49;70.71;94554.63;5044063;28;20089;-78
2024/01/03 07:34:32;;;;;;;27.85;17.40;;;;;;;4.52;70.78;94550.31;5042469;28;20037;-79
2024/01/03 07:36:58;;;;;;;29.05;17.63;;;;;;;4.57;70.55;94549.88;5047833;28;20325;-80
2024/01/03 07:39:23;;;;;;;29.10;18.30;;;;;;;4.60;70.17;94542.84;5047799;28;20525;-79
2024/01/03 07:41:49;;;;;;;23.00;15.20;;;;;;;4.63;70.32;94547.47;5046866;28;20023;-79
2024/01/03 07:44:15;;;;;;;20.65;14.45;;;;;;;4.52;70.71;94548.38;5043074;28;20561;-78
2024/01/03 07:46:40;;;;;;;26.40;15.45;;;;;;;4.60;70.63;94542.84;5037103;28;20052;-79
2024/01/03 07:49:06;;;;;;;24.23;15.50;;;;;;;4.66;70.67;94546.69;5047384;28;20029;-79
2024/01/03 07:51:34;;;;;;;22.77;15.82;;;;;;;4.64;70.61;94557.19;5028523;28;20052;-78
2024/01/03 07:54:00;;;;;;;22.60;15.23;;;;;;;4.65;70.46;94540.47;5027309;28;20029;-78
2024/01/03 07:56:25;;;;;;;23.50;15.52;;;;;;;4.62;70.84;94543.97;5027256;28;20044;-78
2024/01/03 07:58:51;;;;;;;20.15;14.25;;;;;;;4.67;70.93;94550.94;5024871;28;20057;-78
2024/01/03 08:01:16;;;;;;;20.80;15.45;;;;;;;4.70;70.90;94540.00;5009657;28;20025;-78
2024/01/03 08:03:41;;;;;;;26.60;17.42;;;;;;;4.79;70.79;94547.66;5043164;28;20025;-79
2024/01/03 08:06:07;;;;;;;21.67;16.00;;;;;;;4.86;70.68;94536.66;5048481;28;20037;-78
2024/01/03 08:08:33;;;;;;;23.52;15.35;;;;;;;4.92;70.62;94537.75;5044565;28;20029;-79
2024/01/03 08:10:58;;;;;;;23.70;16.20;;;;;;;4.98;70.37;94540.78;5045756;28;20670;-79
2024/01/03 08:13:24;;;;;;;29.83;21.05;;;;;;;5.03;70.12;94524.00;5039186;28;20025;-79
2024/01/03 08:15:49;;;;;;;29.92;23.60;;;;;;;5.09;69.70;94540.66;5034262;28;20128;-77
2024/01/03 08:18:16;;;;;;;26.95;21.65;;;;;;;5.15;69.80;94539.00;5027770;28;20478;-80
2024/01/03 08:20:41;;;;;;;27.35;21.92;;;;;;;5.20;69.59;94530.38;5009447;28;20033;-79
2024/01/03 08:23:07;;;;;;;31.00;23.42;;;;;;;5.26;69.60;94539.63;5029398;28;20029;-79
2024/01/03 08:25:32;;;;;;;26.77;21.42;;;;;;;5.25;69.84;94527.94;5046649;28;20051;-81
2024/01/03 08:27:58;;;;;;;30.70;21.70;;;;;;;5.36;69.61;94532.47;5034488;28;20051;-77
2024/01/03 08:30:23;;;;;;;25.75;20.70;;;;;;;5.48;69.40;94527.22;5044826;28;20025;-82
2024/01/03 08:32:48;;;;;;;24.50;19.10;;;;;;;5.50;69.40;94515.88;5044263;28;20428;-77
2024/01/03 08:35:14;;;;;;;29.50;20.17;;;;;;;5.54;69.36;94520.09;5046826;28;20037;-79
2024/01/03 08:37:39;;;;;;;25.85;20.27;;;;;;;5.58;69.07;94512.63;5026329;28;20476;-76
2024/01/03 08:40:05;;;;;;;25.77;18.60;;;;;;;5.63;68.98;94521.53;5027090;28;20576;-78
2024/01/03 08:42:31;;;;;;;23.95;18.70;;;;;;;5.68;68.94;94527.28;5032763;28;20511;-77
2024/01/03 08:44:57;;;;;;;34.97;20.83;;;;;;;5.72;68.91;94530.72;5032425;28;20112;-73
2024/01/03 08:47:23;;;;;;;52.55;35.88;;;;;;;5.74;69.92;94527.59;5026234;28;20099;-75
2024/01/03 08:49:48;;;;;;;52.30;34.40;;;;;;;5.75;70.33;94527.16;5027956;28;20488;-74
2024/01/03 08:52:14;;;;;;;54.90;34.83;;;;;;;5.74;67.89;94513.97;5026454;28;20052;-74
2024/01/03 08:54:40;;;;;;;51.17;33.90;;;;;;;5.71;66.11;94515.53;5026169;28;20035;-74
2024/01/03 08:57:08;;;;;;;50.15;34.78;;;;;;;5.54;66.49;94506.47;5037104;28;20035;-76
2024/01/03 08:59:35;;;;;;;51.53;33.03;;;;;;;5.53;66.00;94499.47;5032945;28;20573;-77
2024/01/03 09:02:01;;;;;;;47.22;33.03;;;;;;;5.57;65.97;94500.19;5029398;28;20109;-80
2024/01/03 09:04:27;;;;;;;48.47;34.08;;;;;;;5.56;65.90;94498.66;5038917;28;20047;-76
2024/01/03 09:06:52;;;;;;;50.97;35.53;;;;;;;5.59;65.73;94495.09;5039315;28;20028;-76
2024/01/03 09:09:18;;;;;;;50.10;35.90;;;;;;;5.58;65.73;94509.91;5039147;28;20101;-78
2024/01/03 09:11:43;;;;;;;55.30;34.88;;;;;;;5.57;65.46;94502.94;5045716;28;20026;-75
2024/01/03 09:14:09;;;;;;;48.10;33.65;;;;;;;5.59;65.25;94511.44;5042956;28;20491;-77
2024/01/03 09:16:34;;;;;;;48.40;31.10;;;;;;;5.57;64.77;94493.97;5011357;28;20121;-78
2024/01/03 09:19:01;;;;;;;48.60;31.65;;;;;;;5.56;64.60;94486.97;5010918;28;20025;-76
2024/01/03 09:21:27;;;;;;;47.25;31.08;;;;;;;5.59;64.09;94497.06;5010019;28;20032;-76
2024/01/03 09:23:52;;;;;;;45.63;29.52;;;;;;;5.61;64.28;94486.50;5009217;28;20129;-77
2024/01/03 09:26:22;;;;;;;43.58;30.27;;;;;;;5.53;64.33;94474.94;5009547;28;20111;-77
2024/01/03 09:28:48;;;;;;;44.85;30.05;;;;;;;5.52;64.40;94487.03;5010580;28;20049;-78
2024/01/03 09:31:14;;;;;;;43.70;28.67;;;;;;;5.53;64.62;94479.63;5010196;28;20033;-76
2024/01/03 09:33:39;;;;;;;43.92;28.40;;;;;;;5.56;64.61;94484.22;5009673;28;20488;-76
2024/01/03 09:36:05;;;;;;;44.05;29.67;;;;;;;5.59;64.40;94476.00;5010460;28;20401;-77
2024/01/03 09:38:30;;;;;;;42.38;28.08;;;;;;;5.64;64.59;94474.00;5007849;28;20022;-76
2024/01/03 09:40:57;;;;;;;44.30;28.65;;;;;;;5.63;64.54;94467.78;5010453;28;20039;-77
2024/01/03 09:43:23;;;;;;;49.38;30.80;;;;;;;5.65;64.82;94473.56;5009187;28;20538;-78
2024/01/03 09:45:49;;;;;;;47.83;31.73;;;;;;;5.69;65.03;94474.28;5010178;28;20118;-76
2024/01/03 09:48:14;;;;;;;45.58;31.73;;;;;;;5.72;64.96;94478.13;5008355;28;20092;-76
2024/01/03 09:50:39;;;;;;;49.03;31.48;;;;;;;5.69;65.05;94463.38;5009595;28;20029;-77
2024/01/03 09:53:05;;;;;;;44.50;29.55;;;;;;;5.71;65.04;94476.59;5010377;28;20064;-78
2024/01/03 09:55:32;;;;;;;36.75;25.83;;;;;;;5.74;64.78;94481.22;5010793;28;20052;-78
2024/01/03 09:57:57;;;;;;;39.25;25.55;;;;;;;5.77;64.94;94486.59;5010642;28;20041;-78
2024/01/03 10:00:29;;;;;;;41.20;26.95;;;;;;;5.76;64.92;94476.13;5007766;28;20217;-76
2024/01/03 10:03:00;;;;;;;37.92;24.38;;;;;;;5.79;65.18;94462.44;5010126;28;20412;-77
2024/01/03 10:05:25;;;;;;;38.47;25.67;;;;;;;5.76;65.28;94452.34;5009288;28;20061;-77
2024/01/03 10:07:50;;;;;;;34.28;23.73;;;;;;;5.74;65.40;94462.91;5009798;28;20122;-77
2024/01/03 10:10:31;;;;;;;31.33;22.92;;;;;;;5.80;65.53;94441.38;5009725;28;20029;-76
2024/01/03 10:12:56;;;;;;;31.00;21.08;;;;;;;5.84;65.51;94458.41;5008919;28;20022;-76
2024/01/03 10:15:22;;;;;;;33.85;23.45;;;;;;;5.84;65.57;94450.25;5019170;28;20064;-78
2024/01/03 10:17:48;;;;;;;39.42;25.35;;;;;;;5.85;65.76;94454.53;5026938;28;20143;-78
2024/01/03 10:20:31;;;;;;;57.70;33.35;;;;;;;5.88;65.82;94456.41;5028977;28;20420;-76
2024/01/03 10:23:03;;;;;;;64.90;37.40;;;;;;;5.86;66.01;94448.66;5028507;28;20676;-76
2024/01/03 10:25:29;;;;;;;55.90;32.88;;;;;;;5.90;66.24;94440.38;5029842;28;20021;-77
2024/01/03 10:28:05;;;;;;;39.83;26.25;;;;;;;5.92;66.69;94432.59;5029836;28;20052;-76
2024/01/03 10:30:30;;;;;;;35.33;25.90;;;;;;;5.99;66.59;94434.41;5028336;28;20029;-77
2024/01/03 10:33:00;;;;;;;33.88;23.42;;;;;;;6.01;66.59;94438.25;5027702;28;20018;-78
2024/01/03 10:35:27;;;;;;;33.83;22.73;;;;;;;6.04;66.21;94421.06;5028374;28;20591;-76
2024/01/03 10:37:55;;;;;;;36.50;24.50;;;;;;;6.06;66.35;94426.84;5027357;28;20112;-77
2024/01/03 10:40:21;;;;;;;32.45;22.80;;;;;;;6.10;66.49;94421.34;5028587;28;20056;-76
2024/01/03 10:42:49;;;;;;;33.30;24.42;;;;;;;6.11;66.52;94412.72;5026916;28;20013;-77
2024/01/03 10:45:15;;;;;;;43.33;25.38;;;;;;;6.16;66.26;94407.97;5028832;28;20025;-76
2024/01/03 10:47:41;;;;;;;33.85;23.90;;;;;;;6.15;66.36;94407.19;5026633;28;20120;-78
2024/01/03 10:50:07;;;;;;;36.60;24.58;;;;;;;6.20;66.35;94408.66;5028886;28;20034;-77
2024/01/03 10:52:36;;;;;;;35.78;25.95;;;;;;;6.18;66.53;94406.34;5027820;28;20415;-78
2024/01/03 10:55:06;;;;;;;37.03;25.48;;;;;;;6.20;66.52;94403.22;5028531;28;20108;-78
2024/01/03 10:57:34;;;;;;;24.52;18.40;;;;;;;6.27;66.11;94401.09;5026742;28;20040;-77
2024/01/03 11:00:30;;;;;;;24.63;15.77;;;;;;;6.31;66.03;94395.56;5026632;28;20030;-76
2024/01/03 11:03:05;;;;;;;19.00;12.48;;;;;;;6.37;65.87;94393.88;5027428;28;20597;-76
2024/01/03 11:06:03;;;;;;;27.45;15.38;;;;;;;6.58;65.58;94390.66;5026353;28;20030;-77
2024/01/03 11:08:35;;;;;;;6.70;4.70;;;;;;;6.74;64.58;94380.97;5027633;28;20032;-77
2024/01/03 11:11:01;;;;;;;4.28;2.30;;;;;;;6.90;63.46;94387.22;5027369;28;20479;-77
2024/01/03 11:13:31;;;;;;;5.32;2.40;;;;;;;6.98;62.80;94374.16;5027203;28;20075;-77
2024/01/03 11:15:58;;;;;;;5.30;2.38;;;;;;;7.15;62.70;94380.38;5028356;28;20463;-76
2024/01/03 11:18:41;;;;;;;5.20;1.85;;;;;;;7.32;61.33;94375.66;5027289;28;20032;-78
2024/01/03 11:21:28;;;;;;;;;;;;;;;7.49;60.73;94370.94;5028667;28;20039;-76
2024/01/03 11:23:54;;;;;;;3.63;1.63;;;;;;;7.59;59.75;94353.50;5028209;28;19913;-77